Time;durP1;ratioP1;P1;durP2;ratioP2;P2;SDS_P1;SDS_P2;PMS_P1;PMS_P2;Temp;Humidity;BMP_temperature;BMP_pressure;BME280_temperature;BME280_humidity;BME280_pressure;Samples;Min_cycle;Max_cycle;Signal;HPM_P1;HPM_P2
2023/07/22 00:00:44;;;;;;;9.02;5.40;;;12.20;99.90;;;;;;4984503;28;20023;-63
2023/07/22 00:03:09;;;;;;;10.82;5.88;;;12.20;99.90;;;;;;4984531;28;20037;-65
2023/07/22 00:05:35;;;;;;;11.07;5.78;;;12.10;99.90;;;;;;4964697;28;20089;-65
2023/07/22 00:08:01;;;;;;;11.20;4.80;;;12.10;99.90;;;;;;4985384;28;20041;-63
2023/07/22 00:10:26;;;;;;;10.25;5.90;;;12.10;99.90;;;;;;4959582;28;20022;-63
2023/07/22 00:12:52;;;;;;;11.63;5.85;;;12.10;99.90;;;;;;4957763;28;20385;-65
2023/07/22 00:15:18;;;;;;;10.77;5.63;;;12.00;99.90;;;;;;4984172;28;20089;-62
2023/07/22 00:17:43;;;;;;;9.82;4.88;;;12.00;99.90;;;;;;4985174;28;20032;-63
2023/07/22 00:20:13;;;;;;;11.82;5.97;;;12.00;99.90;;;;;;4985123;28;20109;-64
2023/07/22 00:22:39;;;;;;;10.80;5.35;;;11.90;99.90;;;;;;4984533;28;20022;-63
2023/07/22 00:25:10;;;;;;;9.45;5.72;;;11.90;99.90;;;;;;4964418;28;20510;-63
2023/07/22 00:27:37;;;;;;;11.98;6.25;;;11.90;99.90;;;;;;4986104;28;20034;-64
2023/07/22 00:30:05;;;;;;;10.55;5.20;;;11.90;99.90;;;;;;4990502;28;20069;-63
2023/07/22 00:32:31;;;;;;;11.77;5.88;;;11.90;99.90;;;;;;4989828;28;20434;-63
2023/07/22 00:34:57;;;;;;;9.05;5.65;;;11.90;99.90;;;;;;4990759;28;20015;-64
2023/07/22 00:37:22;;;;;;;11.73;5.80;;;11.90;99.90;;;;;;4992876;28;20062;-63
2023/07/22 00:39:48;;;;;;;11.10;6.32;;;11.90;99.90;;;;;;4986519;28;20085;-64
2023/07/22 00:42:13;;;;;;;9.98;5.63;;;11.80;99.90;;;;;;4989036;28;20035;-63
2023/07/22 00:44:39;;;;;;;10.45;5.82;;;11.80;99.90;;;;;;4986308;28;20518;-63
2023/07/22 00:47:04;;;;;;;16.17;6.30;;;11.70;99.90;;;;;;4979912;28;20887;-61
2023/07/22 00:49:30;;;;;;;9.45;5.82;;;11.70;99.90;;;;;;4977718;28;20038;-64
2023/07/22 00:52:02;;;;;;;11.52;6.25;;;11.60;99.90;;;;;;4977379;28;20489;-63
2023/07/22 00:54:28;;;;;;;14.02;5.85;;;11.60;99.90;;;;;;4979045;28;20018;-63
2023/07/22 00:56:56;;;;;;;11.60;5.82;;;11.60;99.90;;;;;;4978535;28;20042;-64
2023/07/22 00:59:21;;;;;;;11.30;5.97;;;11.60;99.90;;;;;;4977815;28;20042;-62
2023/07/22 01:01:47;;;;;;;11.63;6.03;;;11.60;99.90;;;;;;4959302;28;20145;-62
2023/07/22 01:04:14;;;;;;;12.20;6.40;;;11.50;99.90;;;;;;4975678;28;20045;-64
2023/07/22 01:06:40;;;;;;;14.52;6.43;;;11.50;99.90;;;;;;4981563;28;21290;-65
2023/07/22 01:09:09;;;;;;;15.40;5.97;;;11.40;99.90;;;;;;4978518;28;20050;-62
2023/07/22 01:11:34;;;;;;;10.38;6.78;;;11.40;99.90;;;;;;4961872;28;20019;-63
2023/07/22 01:14:01;;;;;;;12.20;5.53;;;11.40;99.90;;;;;;4968801;28;20153;-60
2023/07/22 01:16:27;;;;;;;10.23;6.18;;;11.40;99.90;;;;;;4980922;28;20101;-66
2023/07/22 01:18:54;;;;;;;12.45;6.00;;;11.40;99.90;;;;;;4980484;28;20026;-63
2023/07/22 01:21:22;;;;;;;12.55;6.55;;;11.30;99.90;;;;;;4977680;28;20111;-63
2023/07/22 01:23:48;;;;;;;11.80;6.28;;;11.30;99.90;;;;;;4974114;28;20892;-64
2023/07/22 01:26:14;;;;;;;9.75;5.90;;;11.30;99.90;;;;;;4973265;28;20034;-63
2023/07/22 01:28:40;;;;;;;13.38;6.45;;;11.30;99.90;;;;;;4971585;28;20036;-66
2023/07/22 01:31:05;;;;;;;13.27;6.78;;;11.30;99.90;;;;;;4970393;28;20030;-64
2023/07/22 01:33:31;;;;;;;12.52;6.65;;;11.20;99.90;;;;;;4969646;28;20034;-61
2023/07/22 01:35:58;;;;;;;11.77;6.97;;;11.20;99.90;;;;;;4966132;28;20049;-62
2023/07/22 01:38:23;;;;;;;10.68;6.25;;;11.10;99.90;;;;;;4966414;28;20038;-64
2023/07/22 01:40:49;;;;;;;14.52;6.70;;;11.10;99.90;;;;;;4967611;28;20045;-63
2023/07/22 01:43:15;;;;;;;14.73;7.50;;;11.10;99.90;;;;;;4967670;28;20026;-64
2023/07/22 01:45:40;;;;;;;19.08;6.68;;;11.10;99.90;;;;;;4981129;28;20031;-63
2023/07/22 01:48:06;;;;;;;14.57;7.93;;;11.10;99.90;;;;;;4992307;28;20034;-64
2023/07/22 01:50:32;;;;;;;16.90;7.80;;;11.10;99.90;;;;;;4985975;28;20081;-61
2023/07/22 01:52:57;;;;;;;14.98;7.82;;;11.20;99.90;;;;;;4983337;28;20018;-63
2023/07/22 01:55:23;;;;;;;15.23;7.13;;;11.20;99.90;;;;;;4988911;28;20423;-64
2023/07/22 01:57:49;;;;;;;12.13;7.05;;;11.20;99.90;;;;;;4989658;28;20484;-63
2023/07/22 02:00:15;;;;;;;12.43;7.43;;;11.20;99.90;;;;;;4989136;28;20030;-63
2023/07/22 02:02:43;;;;;;;13.18;7.47;;;11.20;99.90;;;;;;4988108;28;20038;-65
2023/07/22 02:05:12;;;;;;;13.45;7.40;;;11.20;99.90;;;;;;4990699;28;20084;-63
2023/07/22 02:07:38;;;;;;;20.02;7.13;;;11.20;99.90;;;;;;4988029;28;20031;-61
2023/07/22 02:10:05;;;;;;;12.38;6.85;;;11.10;99.90;;;;;;4985761;28;20030;-63
2023/07/22 02:12:30;;;;;;;10.82;6.80;;;11.10;99.90;;;;;;4991349;28;20026;-63
2023/07/22 02:14:56;;;;;;;10.98;6.55;;;11.00;99.90;;;;;;4989902;28;20639;-63
2023/07/22 02:17:23;;;;;;;14.20;7.22;;;11.00;99.90;;;;;;4976712;28;20508;-63
2023/07/22 02:19:49;;;;;;;11.95;6.10;;;11.10;99.90;;;;;;4986344;28;20031;-63
2023/07/22 02:22:14;;;;;;;14.60;6.85;;;11.10;99.90;;;;;;4987575;28;20041;-63
2023/07/22 02:24:40;;;;;;;13.95;6.80;;;11.20;99.90;;;;;;4986905;28;20030;-63
2023/07/22 02:27:07;;;;;;;12.18;6.80;;;11.30;99.90;;;;;;4990847;28;20030;-63
2023/07/22 02:29:32;;;;;;;14.98;7.15;;;11.40;99.90;;;;;;4993392;28;20160;-63
2023/07/22 02:31:58;;;;;;;10.55;6.10;;;11.50;99.90;;;;;;4989412;28;20109;-63
2023/07/22 02:34:23;;;;;;;10.82;5.90;;;11.50;99.90;;;;;;4983757;28;20038;-64
2023/07/22 02:36:49;;;;;;;13.48;6.40;;;11.50;99.90;;;;;;4989089;28;20046;-63
2023/07/22 02:39:15;;;;;;;9.85;5.40;;;11.60;99.90;;;;;;4987114;28;20135;-63
2023/07/22 02:41:41;;;;;;;11.55;5.63;;;11.60;99.90;;;;;;4989756;28;20061;-65
2023/07/22 02:44:06;;;;;;;12.88;5.82;;;11.70;99.90;;;;;;4989072;28;20492;-64
2023/07/22 02:46:32;;;;;;;9.40;5.05;;;11.70;99.90;;;;;;4971831;28;20037;-61
2023/07/22 02:49:01;;;;;;;10.57;5.80;;;11.70;99.90;;;;;;4988937;28;20034;-64
2023/07/22 02:51:26;;;;;;;9.55;5.75;;;11.80;99.90;;;;;;4989343;28;20042;-59
2023/07/22 02:53:52;;;;;;;10.60;6.57;;;11.70;99.90;;;;;;4972528;28;20547;-59
2023/07/22 02:56:18;;;;;;;12.57;5.72;;;11.80;99.90;;;;;;4969145;28;20034;-64
2023/07/22 02:58:43;;;;;;;9.75;5.72;;;11.80;99.90;;;;;;4993562;28;20484;-63
2023/07/22 03:01:10;;;;;;;11.30;5.63;;;11.80;99.90;;;;;;4986310;28;20038;-65
2023/07/22 03:03:36;;;;;;;16.42;5.35;;;11.80;99.90;;;;;;4990682;28;20034;-65
2023/07/22 03:06:03;;;;;;;10.00;5.63;;;11.80;99.90;;;;;;4987734;28;20050;-64
2023/07/22 03:08:29;;;;;;;10.13;6.22;;;11.80;99.90;;;;;;4990254;28;20018;-65
2023/07/22 03:10:55;;;;;;;10.00;6.25;;;11.70;99.90;;;;;;4989834;28;20030;-64
2023/07/22 03:13:20;;;;;;;10.80;7.10;;;11.60;99.90;;;;;;4982989;28;20105;-64
2023/07/22 03:15:46;;;;;;;12.63;7.28;;;11.60;99.90;;;;;;4990731;28;20062;-64
2023/07/22 03:18:12;;;;;;;13.25;7.35;;;11.50;99.90;;;;;;4985965;28;20408;-63
2023/07/22 03:20:38;;;;;;;16.48;6.95;;;11.50;99.90;;;;;;4972749;28;20042;-64
2023/07/22 03:23:04;;;;;;;14.48;6.55;;;11.50;99.90;;;;;;4991323;28;20022;-63
2023/07/22 03:25:30;;;;;;;12.07;6.35;;;11.50;99.90;;;;;;4990718;28;20106;-63
2023/07/22 03:27:56;;;;;;;11.30;6.80;;;11.50;99.90;;;;;;4990500;28;20113;-61
2023/07/22 03:30:22;;;;;;;12.82;6.43;;;11.50;99.90;;;;;;4987703;28;20026;-64
2023/07/22 03:32:50;;;;;;;15.77;7.95;;;11.50;99.90;;;;;;4990824;28;20022;-63
2023/07/22 03:35:16;;;;;;;11.52;6.18;;;11.50;99.90;;;;;;4989037;28;20073;-64
2023/07/22 03:37:43;;;;;;;11.43;6.95;;;11.60;99.90;;;;;;4990598;28;20039;-64
2023/07/22 03:40:20;;;;;;;12.25;6.20;;;11.60;99.90;;;;;;4990383;28;20092;-63
2023/07/22 03:42:52;;;;;;;11.32;6.45;;;11.60;99.90;;;;;;4990891;28;20030;-66
2023/07/22 03:45:19;;;;;;;11.45;6.63;;;11.60;99.90;;;;;;4989708;28;20558;-64
2023/07/22 03:47:45;;;;;;;9.13;5.43;;;11.60;99.90;;;;;;4986803;28;20653;-64
2023/07/22 03:50:11;;;;;;;10.23;5.55;;;11.70;99.90;;;;;;4987481;28;20432;-62
2023/07/22 03:52:37;;;;;;;8.52;5.57;;;11.70;99.90;;;;;;4992805;28;20410;-59
2023/07/22 03:55:05;;;;;;;11.77;6.10;;;11.70;99.90;;;;;;4987188;28;20101;-63
2023/07/22 03:57:30;;;;;;;12.05;5.88;;;11.70;99.90;;;;;;4963876;28;20566;-64
2023/07/22 03:59:56;;;;;;;16.50;5.45;;;11.70;99.90;;;;;;4989866;28;20233;-64
2023/07/22 04:02:22;;;;;;;11.70;6.85;;;11.60;99.90;;;;;;4988857;28;20031;-66
2023/07/22 04:04:48;;;;;;;15.70;6.22;;;11.70;99.90;;;;;;4988015;28;20030;-63
2023/07/22 04:07:14;;;;;;;13.45;5.93;;;11.70;99.90;;;;;;4986746;28;20080;-63
2023/07/22 04:09:40;;;;;;;12.68;6.85;;;11.60;99.90;;;;;;4986951;28;20022;-61
2023/07/22 04:12:07;;;;;;;9.90;5.95;;;11.60;99.90;;;;;;4988901;28;20064;-64
2023/07/22 04:14:32;;;;;;;9.55;6.50;;;11.70;99.90;;;;;;4986614;28;20479;-63
2023/07/22 04:16:58;;;;;;;9.85;5.38;;;11.70;99.90;;;;;;4988432;28;20034;-63
2023/07/22 04:19:23;;;;;;;12.70;6.57;;;11.80;99.90;;;;;;4988320;28;20431;-64
2023/07/22 04:21:49;;;;;;;11.25;6.43;;;11.80;99.90;;;;;;4975823;28;20046;-64
2023/07/22 04:24:14;;;;;;;11.93;6.30;;;11.90;99.90;;;;;;4988631;28;20488;-64
2023/07/22 04:26:42;;;;;;;10.90;6.10;;;12.00;99.90;;;;;;4987951;28;20037;-64
2023/07/22 04:29:08;;;;;;;9.05;5.03;;;12.10;99.90;;;;;;4988669;28;20400;-64
2023/07/22 04:31:34;;;;;;;12.27;6.55;;;12.20;99.90;;;;;;4988715;28;20030;-64
2023/07/22 04:33:59;;;;;;;13.07;6.20;;;12.30;99.90;;;;;;4985247;28;20072;-63
2023/07/22 04:36:25;;;;;;;9.70;5.82;;;12.30;99.90;;;;;;4971798;28;20022;-63
2023/07/22 04:38:50;;;;;;;7.75;5.47;;;12.30;99.90;;;;;;4989716;28;20400;-62
2023/07/22 04:41:16;;;;;;;10.57;5.45;;;12.50;99.90;;;;;;4992816;28;20095;-66
2023/07/22 04:43:41;;;;;;;10.93;5.22;;;12.80;99.90;;;;;;4993007;28;20035;-66
2023/07/22 04:46:08;;;;;;;10.45;5.53;;;13.20;99.90;;;;;;4991063;28;20531;-64
2023/07/22 04:48:34;;;;;;;8.93;5.50;;;13.70;99.90;;;;;;4993885;28;20018;-63
2023/07/22 04:50:59;;;;;;;8.57;4.75;;;14.20;99.90;;;;;;4988360;28;20026;-64
2023/07/22 04:53:25;;;;;;;8.77;5.00;;;14.60;99.90;;;;;;4992017;28;20496;-65
2023/07/22 04:55:50;;;;;;;9.73;5.35;;;15.30;99.90;;;;;;4989541;28;20065;-64
2023/07/22 04:58:16;;;;;;;9.40;5.50;;;16.00;99.90;;;;;;4990157;28;20035;-65
2023/07/22 05:00:43;;;;;;;9.02;5.13;;;16.60;99.90;;;;;;4989017;28;20508;-65
2023/07/22 05:03:08;;;;;;;7.63;4.63;;;17.30;99.90;;;;;;4969818;28;20027;-63
2023/07/22 05:05:34;;;;;;;6.30;4.05;;;18.30;99.90;;;;;;4988299;28;20043;-64
2023/07/22 05:07:59;;;;;;;6.32;4.22;;;19.10;99.80;;;;;;4993411;28;20057;-65
2023/07/22 05:10:25;;;;;;;7.63;5.10;;;19.30;98.70;;;;;;4992357;28;20488;-64
2023/07/22 05:12:51;;;;;;;7.97;4.88;;;19.30;97.70;;;;;;4992405;28;20084;-65
2023/07/22 05:15:16;;;;;;;6.75;4.18;;;18.70;98.20;;;;;;4997129;28;20890;-64
2023/07/22 05:17:42;;;;;;;7.22;4.70;;;19.00;97.60;;;;;;4995978;28;20030;-65
2023/07/22 05:20:10;;;;;;;8.65;4.93;;;18.80;97.10;;;;;;4992852;28;20038;-64
2023/07/22 05:22:39;;;;;;;6.35;4.47;;;18.00;98.90;;;;;;4993620;28;20045;-66
2023/07/22 05:25:06;;;;;;;7.80;4.57;;;17.50;99.90;;;;;;4967223;28;20042;-64
2023/07/22 05:27:32;;;;;;;7.22;4.88;;;17.30;99.90;;;;;;4993062;28;20369;-64
2023/07/22 05:29:58;;;;;;;8.35;4.85;;;17.10;99.90;;;;;;4991248;28;20018;-63
2023/07/22 05:32:23;;;;;;;6.40;4.65;;;17.20;99.90;;;;;;4993563;28;20022;-64
2023/07/22 05:34:49;;;;;;;7.25;5.13;;;17.20;99.90;;;;;;4991045;28;20066;-65
2023/07/22 05:37:15;;;;;;;9.77;4.85;;;17.30;99.90;;;;;;4993196;28;20022;-65
2023/07/22 05:39:40;;;;;;;9.15;4.63;;;17.40;99.90;;;;;;4992906;28;20053;-63
2023/07/22 05:42:06;;;;;;;7.50;4.65;;;17.30;99.90;;;;;;4992752;28;20034;-64
2023/07/22 05:44:31;;;;;;;5.70;4.20;;;17.70;99.90;;;;;;4992686;28;20546;-64
2023/07/22 05:46:57;;;;;;;7.22;4.45;;;18.30;99.90;;;;;;4988942;28;20043;-67
2023/07/22 05:49:23;;;;;;;5.75;3.88;;;19.80;98.60;;;;;;4988618;28;20030;-65
2023/07/22 05:51:48;;;;;;;6.32;3.80;;;21.10;93.80;;;;;;4989089;28;20084;-62
2023/07/22 05:54:14;;;;;;;5.60;3.72;;;21.20;93.50;;;;;;4991851;28;20033;-64
2023/07/22 05:56:41;;;;;;;8.05;3.90;;;23.00;90.00;;;;;;4991586;28;20087;-66
2023/07/22 05:59:07;;;;;;;5.38;3.80;;;22.80;89.00;;;;;;4991907;28;20019;-65
2023/07/22 06:01:32;;;;;;;7.95;3.78;;;23.50;84.60;;;;;;4990079;28;20164;-65
2023/07/22 06:03:58;;;;;;;5.60;4.10;;;23.10;86.80;;;;;;4987538;28;20026;-65
2023/07/22 06:06:24;;;;;;;4.75;3.40;;;23.70;85.60;;;;;;4989832;28;20120;-64
2023/07/22 06:08:49;;;;;;;4.90;3.30;;;24.90;82.60;;;;;;4989203;28;20026;-66
2023/07/22 06:11:15;;;;;;;6.55;3.72;;;26.00;78.30;;;;;;4972667;28;20026;-66
2023/07/22 06:13:40;;;;;;;5.30;3.58;;;25.20;79.40;;;;;;4972011;28;20542;-65
2023/07/22 06:16:06;;;;;;;6.03;3.45;;;24.50;79.90;;;;;;4989651;28;20074;-65
2023/07/22 06:18:32;;;;;;;5.60;3.70;;;23.10;83.70;;;;;;4987303;28;20512;-63
2023/07/22 06:20:57;;;;;;;7.25;3.75;;;22.20;83.90;;;;;;4986790;28;20083;-65
2023/07/22 06:23:23;;;;;;;7.00;3.88;;;21.30;87.40;;;;;;4992523;28;20029;-65
2023/07/22 06:25:48;;;;;;;4.13;2.92;;;21.30;88.70;;;;;;4990058;28;20480;-64
2023/07/22 06:28:14;;;;;;;11.00;3.30;;;21.20;89.30;;;;;;4974116;28;20043;-64
2023/07/22 06:30:39;;;;;;;7.20;3.47;;;21.30;88.90;;;;;;4986884;28;20044;-67
2023/07/22 06:33:05;;;;;;;6.28;3.28;;;21.30;88.30;;;;;;4992536;28;20025;-65
2023/07/22 06:35:31;;;;;;;4.93;3.35;;;21.60;89.00;;;;;;4989035;28;20081;-65
2023/07/22 06:37:56;;;;;;;7.88;3.60;;;21.40;90.10;;;;;;4988931;28;20054;-64
2023/07/22 06:40:22;;;;;;;7.20;3.67;;;22.50;87.70;;;;;;4989735;28;20077;-66
2023/07/22 06:42:47;;;;;;;5.72;3.33;;;22.30;87.20;;;;;;4991285;28;20033;-65
2023/07/22 06:45:13;;;;;;;5.00;3.45;;;22.60;88.50;;;;;;4989911;28;20555;-64
2023/07/22 06:47:38;;;;;;;6.00;3.42;;;23.20;86.10;;;;;;4992027;28;20030;-64
2023/07/22 06:50:04;;;;;;;5.18;3.67;;;24.90;82.00;;;;;;4991988;28;20046;-66
2023/07/22 06:52:31;;;;;;;7.32;3.65;;;25.90;76.70;;;;;;4981097;28;20034;-63
2023/07/22 06:54:56;;;;;;;5.88;4.45;;;25.70;77.40;;;;;;4989802;28;20030;-64
2023/07/22 06:57:22;;;;;;;3.95;3.10;;;26.00;75.00;;;;;;4987592;28;20088;-65
2023/07/22 06:59:50;;;;;;;6.05;2.97;;;27.00;75.70;;;;;;4989115;28;20081;-63
2023/07/22 07:02:16;;;;;;;5.72;3.47;;;27.60;73.40;;;;;;4988599;28;20023;-64
2023/07/22 07:04:42;;;;;;;3.65;3.22;;;27.60;71.50;;;;;;4989881;28;20038;-63
2023/07/22 07:07:07;;;;;;;4.85;3.17;;;28.40;73.10;;;;;;4987901;28;20053;-64
2023/07/22 07:09:35;;;;;;;5.18;3.10;;;28.40;70.00;;;;;;4988487;28;20026;-63
2023/07/22 07:12:01;;;;;;;4.45;2.83;;;28.10;69.70;;;;;;4990228;28;20025;-63
2023/07/22 07:14:26;;;;;;;6.35;2.95;;;27.10;72.40;;;;;;4988309;28;20227;-62
2023/07/22 07:16:52;;;;;;;6.85;3.15;;;26.00;70.10;;;;;;4983536;28;20492;-62
2023/07/22 07:19:17;;;;;;;3.70;2.75;;;25.00;74.30;;;;;;4986584;28;20384;-64
2023/07/22 07:21:43;;;;;;;8.48;3.40;;;24.60;75.10;;;;;;4988445;28;20033;-64
2023/07/22 07:24:08;;;;;;;4.68;3.58;;;24.10;76.00;;;;;;4986304;28;20061;-64
2023/07/22 07:26:34;;;;;;;7.03;3.88;;;23.70;77.70;;;;;;4990763;28;20037;-64
2023/07/22 07:29:00;;;;;;;4.40;2.92;;;23.70;77.60;;;;;;4969154;28;20510;-65
2023/07/22 07:31:25;;;;;;;5.72;2.92;;;23.40;77.60;;;;;;4991111;28;20034;-65
2023/07/22 07:33:51;;;;;;;4.28;3.08;;;23.00;78.90;;;;;;4990293;28;20090;-61
2023/07/22 07:36:17;;;;;;;7.28;3.15;;;23.00;80.40;;;;;;4990567;28;20022;-64
2023/07/22 07:38:42;;;;;;;6.20;3.90;;;23.40;79.40;;;;;;4990873;28;20041;-64
2023/07/22 07:41:08;;;;;;;4.75;3.65;;;23.70;75.90;;;;;;4990194;28;20030;-65
2023/07/22 07:43:35;;;;;;;6.00;3.58;;;24.60;75.70;;;;;;4990960;28;20014;-65
2023/07/22 07:46:23;;;;;;;4.95;3.42;;;24.70;73.60;;;;;;4989260;28;20037;-65
2023/07/22 07:48:51;;;;;;;6.28;2.90;;;26.20;72.60;;;;;;4973156;28;20026;-65
2023/07/22 07:51:17;;;;;;;4.93;3.17;;;26.80;71.50;;;;;;4989627;28;20038;-67
2023/07/22 07:53:44;;;;;;;8.07;4.18;;;27.80;71.30;;;;;;4990718;28;20081;-62
2023/07/22 07:56:10;;;;;;;6.20;4.30;;;27.70;66.50;;;;;;4989263;28;20419;-64
2023/07/22 07:58:36;;;;;;;8.27;3.97;;;28.00;66.40;;;;;;4981673;28;20427;-64
2023/07/22 08:01:02;;;;;;;5.60;4.32;;;28.30;66.70;;;;;;4990084;28;20022;-64
2023/07/22 08:03:28;;;;;;;5.35;3.30;;;28.50;65.30;;;;;;4990099;28;20030;-64
2023/07/22 08:05:53;;;;;;;4.65;3.58;;;28.40;64.40;;;;;;4989756;28;20026;-64
2023/07/22 08:08:20;;;;;;;10.60;3.83;;;28.50;64.00;;;;;;4989557;28;20057;-64
2023/07/22 08:10:45;;;;;;;6.85;4.47;;;28.10;64.50;;;;;;4989877;28;20438;-66
2023/07/22 08:13:11;;;;;;;6.75;3.40;;;28.90;64.20;;;;;;4989675;28;20107;-65
2023/07/22 08:15:37;;;;;;;4.95;3.75;;;29.30;64.80;;;;;;4989982;28;20950;-62
2023/07/22 08:18:03;;;;;;;6.95;3.80;;;28.90;64.10;;;;;;4988214;28;20018;-62
2023/07/22 08:20:30;;;;;;;5.97;3.33;;;28.30;64.30;;;;;;4989138;28;20033;-64
2023/07/22 08:22:56;;;;;;;4.75;3.28;;;27.10;64.10;;;;;;4990221;28;20026;-65
2023/07/22 08:25:21;;;;;;;5.13;3.25;;;27.00;66.10;;;;;;4989190;28;20471;-64
2023/07/22 08:27:47;;;;;;;4.88;3.10;;;26.20;67.30;;;;;;4989990;28;20442;-64
2023/07/22 08:30:12;;;;;;;6.30;3.50;;;26.00;68.50;;;;;;4950466;28;20038;-63
2023/07/22 08:32:38;;;;;;;5.00;3.78;;;25.70;68.60;;;;;;4990039;28;20018;-64
2023/07/22 08:35:06;;;;;;;5.70;3.47;;;25.50;68.50;;;;;;4989236;28;20069;-63
2023/07/22 08:37:32;;;;;;;9.68;4.05;;;25.10;69.60;;;;;;4988508;28;20026;-64
2023/07/22 08:39:58;;;;;;;5.60;3.60;;;25.10;68.80;;;;;;4988504;28;20034;-63
2023/07/22 08:42:25;;;;;;;7.20;3.70;;;25.10;69.50;;;;;;4987709;28;20034;-63
2023/07/22 08:44:56;;;;;;;6.38;3.53;;;24.80;71.00;;;;;;4989747;28;20030;-65
2023/07/22 08:47:24;;;;;;;9.13;3.28;;;24.70;71.20;;;;;;4988568;28;20102;-64
2023/07/22 08:49:53;;;;;;;4.10;2.90;;;24.60;72.60;;;;;;4989557;28;20022;-63
2023/07/22 08:52:19;;;;;;;4.53;3.03;;;24.20;70.80;;;;;;4988596;28;20449;-63
2023/07/22 08:54:46;;;;;;;5.28;2.92;;;24.10;70.60;;;;;;4987544;28;20054;-65
2023/07/22 08:57:12;;;;;;;4.68;3.42;;;23.70;73.90;;;;;;4989627;28;20491;-63
2023/07/22 08:59:37;;;;;;;7.13;3.00;;;24.10;72.80;;;;;;4988859;28;20030;-63
2023/07/22 09:02:05;;;;;;;5.70;3.92;;;23.80;73.20;;;;;;4989824;28;20037;-64
2023/07/22 09:04:30;;;;;;;4.70;3.78;;;23.70;73.20;;;;;;4971951;28;20026;-63
2023/07/22 09:06:56;;;;;;;6.30;3.60;;;23.80;71.70;;;;;;4989641;28;20022;-63
2023/07/22 09:09:24;;;;;;;5.45;3.70;;;23.30;74.30;;;;;;4989154;28;20026;-63
2023/07/22 09:11:51;;;;;;;6.85;4.13;;;23.30;73.90;;;;;;4989025;28;20499;-63
2023/07/22 09:14:19;;;;;;;5.93;3.38;;;23.90;73.20;;;;;;4989363;28;20117;-63
2023/07/22 09:16:44;;;;;;;4.68;3.10;;;24.40;71.70;;;;;;4988244;28;20035;-63
2023/07/22 09:19:10;;;;;;;4.35;3.15;;;24.80;70.20;;;;;;4989214;28;21368;-65
2023/07/22 09:21:35;;;;;;;8.85;3.30;;;25.30;71.00;;;;;;4988413;28;20029;-64
2023/07/22 09:24:02;;;;;;;5.32;3.42;;;25.10;69.20;;;;;;4972396;28;20400;-63
2023/07/22 09:26:32;;;;;;;5.30;3.10;;;25.30;70.20;;;;;;4992382;28;20484;-64
2023/07/22 09:28:58;;;;;;;7.47;3.83;;;25.90;70.00;;;;;;4990719;28;20545;-63
2023/07/22 09:31:28;;;;;;;4.38;3.30;;;26.30;68.90;;;;;;4969817;28;20034;-63
2023/07/22 09:33:54;;;;;;;5.80;3.50;;;27.00;67.70;;;;;;4970657;28;20048;-63
2023/07/22 09:36:20;;;;;;;7.20;3.40;;;27.20;68.50;;;;;;4993034;28;20361;-63
2023/07/22 09:38:59;;;;;;;6.10;3.53;;;27.40;66.10;;;;;;4992992;28;20034;-63
2023/07/22 09:41:29;;;;;;;10.80;3.75;;;27.30;65.20;;;;;;4985027;28;20038;-63
2023/07/22 09:43:56;;;;;;;6.15;3.95;;;27.80;66.10;;;;;;4990361;28;20026;-61
2023/07/22 09:46:30;;;;;;;11.35;3.85;;;28.10;66.00;;;;;;4992266;28;20380;-63
2023/07/22 09:48:56;;;;;;;8.23;4.57;;;27.40;65.40;;;;;;4991528;28;20477;-64
2023/07/22 09:51:21;;;;;;;6.05;3.28;;;27.60;66.00;;;;;;4992681;28;20109;-63
2023/07/22 09:53:58;;;;;;;7.38;3.63;;;28.50;65.20;;;;;;4988869;28;20495;-63
2023/07/22 09:56:24;;;;;;;4.93;3.65;;;28.90;64.80;;;;;;4988983;28;20029;-64
2023/07/22 09:58:51;;;;;;;5.03;2.97;;;28.90;64.90;;;;;;4989571;28;20022;-65
2023/07/22 10:01:22;;;;;;;4.82;3.20;;;29.20;66.20;;;;;;4987141;28;20506;-64
2023/07/22 10:03:54;;;;;;;7.63;3.63;;;28.70;63.50;;;;;;4990870;28;20030;-66
2023/07/22 10:06:23;;;;;;;6.43;4.07;;;28.60;63.70;;;;;;4971431;28;20036;-64
2023/07/22 10:08:49;;;;;;;7.70;3.63;;;27.80;64.20;;;;;;4991361;28;20105;-63
2023/07/22 10:11:15;;;;;;;15.35;4.40;;;27.30;67.80;;;;;;4987581;28;20719;-63
2023/07/22 10:13:41;;;;;;;4.85;3.22;;;26.80;68.20;;;;;;4987346;28;20026;-64
2023/07/22 10:16:07;;;;;;;7.28;3.28;;;27.00;65.10;;;;;;4989038;28;20114;-64
2023/07/22 10:18:34;;;;;;;5.88;3.35;;;26.80;66.50;;;;;;4984707;28;20036;-64
2023/07/22 10:21:01;;;;;;;6.90;3.00;;;26.70;66.30;;;;;;4985221;28;20028;-63
2023/07/22 10:23:27;;;;;;;10.40;3.60;;;26.70;66.50;;;;;;4989091;28;20033;-64
2023/07/22 10:25:54;;;;;;;5.38;3.42;;;26.80;64.90;;;;;;4991702;28;20038;-62
2023/07/22 10:28:21;;;;;;;6.32;3.80;;;26.70;65.60;;;;;;4992029;28;20048;-63
2023/07/22 10:30:47;;;;;;;7.15;3.35;;;26.30;64.50;;;;;;4971635;28;20046;-65
2023/07/22 10:33:13;;;;;;;4.88;2.80;;;26.70;66.30;;;;;;4994984;28;20044;-63
2023/07/22 10:35:44;;;;;;;4.93;3.10;;;26.80;64.40;;;;;;4985032;28;20125;-62
2023/07/22 10:38:11;;;;;;;4.57;2.80;;;26.90;65.20;;;;;;4993186;28;20570;-62
2023/07/22 10:40:53;;;;;;;3.85;2.90;;;27.20;64.00;;;;;;4971502;28;20038;-63
2023/07/22 10:43:26;;;;;;;7.03;3.05;;;27.60;62.80;;;;;;4988102;28;20042;-63
2023/07/22 10:45:56;;;;;;;;;;;27.10;62.40;;;;;;4989978;28;20034;-63
2023/07/22 10:48:38;;;;;;;5.10;2.72;;;26.50;62.80;;;;;;4991551;28;20374;-62
2023/07/22 10:51:11;;;;;;;5.75;2.60;;;26.20;62.80;;;;;;4989923;28;20070;-62
2023/07/22 10:53:50;;;;;;;3.42;2.15;;;26.50;62.70;;;;;;4986624;28;20073;-61
2023/07/22 10:56:19;;;;;;;2.88;2.33;;;27.00;62.50;;;;;;4989311;28;20026;-63
2023/07/22 10:58:44;;;;;;;6.70;3.00;;;27.40;62.20;;;;;;4982653;28;20030;-64
2023/07/22 11:01:28;;;;;;;4.50;2.90;;;27.20;61.30;;;;;;4989501;28;20034;-63
2023/07/22 11:04:12;;;;;;;5.25;2.38;;;27.10;62.20;;;;;;4984228;28;20030;-64
2023/07/22 11:06:44;;;;;;;3.60;2.25;;;27.40;61.50;;;;;;4984893;28;20273;-63
2023/07/22 11:09:34;;;;;;;4.45;2.40;;;27.00;60.20;;;;;;4986295;28;20018;-60
2023/07/22 11:12:17;;;;;;;2.63;1.92;;;27.00;61.30;;;;;;4984687;28;20046;-62
2023/07/22 11:15:01;;;;;;;5.10;2.78;;;27.50;62.00;;;;;;4987851;28;20023;-63
2023/07/22 11:17:32;;;;;;;4.55;2.50;;;27.90;60.30;;;;;;4986593;28;20117;-63
2023/07/22 11:19:59;;;;;;;4.03;2.90;;;27.70;59.90;;;;;;4981795;28;20038;-63
2023/07/22 11:22:25;;;;;;;2.67;2.15;;;27.40;60.40;;;;;;4986630;28;20042;-63
2023/07/22 11:24:51;;;;;;;3.03;2.22;;;27.20;61.80;;;;;;4968508;28;20511;-63
2023/07/22 11:27:16;;;;;;;4.55;2.60;;;26.30;60.70;;;;;;4978698;28;20041;-61
2023/07/22 11:29:42;;;;;;;4.60;2.10;;;26.20;61.20;;;;;;4986736;28;20029;-64
2023/07/22 11:32:19;;;;;;;3.97;2.25;;;26.20;62.30;;;;;;4961420;28;20061;-62
2023/07/22 11:34:45;;;;;;;5.05;2.08;;;26.00;61.70;;;;;;4985278;28;20015;-63
2023/07/22 11:37:11;;;;;;;3.15;2.47;;;26.60;60.90;;;;;;4989544;28;20450;-63
2023/07/22 11:39:37;;;;;;;3.30;2.00;;;26.70;60.30;;;;;;4988212;28;20610;-63
2023/07/22 11:42:04;;;;;;;3.15;2.25;;;26.90;60.20;;;;;;4989822;28;20030;-62
2023/07/22 11:44:30;;;;;;;3.38;2.08;;;26.60;59.90;;;;;;4989410;28;20061;-63
2023/07/22 11:47:03;;;;;;;2.90;2.00;;;26.70;59.90;;;;;;4990554;28;20030;-64
2023/07/22 11:49:40;;;;;;;2.15;1.70;;;26.50;60.40;;;;;;4989405;28;20572;-64
2023/07/22 11:52:07;;;;;;;3.35;1.92;;;26.70;59.90;;;;;;4989218;28;20412;-64
2023/07/22 11:54:34;;;;;;;6.10;2.40;;;27.00;59.40;;;;;;4990188;28;20023;-63
2023/07/22 11:57:15;;;;;;;3.67;2.35;;;27.00;59.80;;;;;;4990029;28;20109;-63
2023/07/22 11:59:55;;;;;;;7.57;2.47;;;26.20;60.40;;;;;;4982269;28;20038;-65
2023/07/22 12:02:28;;;;;;;3.53;1.85;;;25.90;59.60;;;;;;4981477;28;20129;-65
2023/07/22 12:05:05;;;;;;;4.65;2.22;;;26.30;60.60;;;;;;4983734;28;20030;-59
2023/07/22 12:07:35;;;;;;;2.97;2.22;;;26.50;59.20;;;;;;4990119;28;20040;-63
2023/07/22 12:10:06;;;;;;;2.33;1.90;;;26.60;61.70;;;;;;4990202;28;20042;-62
2023/07/22 12:12:36;;;;;;;4.13;1.75;;;26.80;62.50;;;;;;4972816;28;20041;-63
2023/07/22 12:15:08;;;;;;;2.38;1.83;;;26.80;59.10;;;;;;4985857;28;20526;-64
2023/07/22 12:18:00;;;;;;;4.28;2.05;;;26.80;61.20;;;;;;4986304;28;20066;-62
2023/07/22 12:20:30;;;;;;;2.22;1.77;;;26.60;57.90;;;;;;4985304;28;20105;-63
2023/07/22 12:22:57;;;;;;;2.80;1.85;;;26.20;58.20;;;;;;4987132;28;20041;-64
2023/07/22 12:25:23;;;;;;;3.83;1.95;;;26.10;59.60;;;;;;4984026;28;20085;-64
2023/07/22 12:27:49;;;;;;;2.80;1.70;;;26.20;59.60;;;;;;4984365;28;20106;-63
2023/07/22 12:30:15;;;;;;;2.85;1.80;;;26.30;57.90;;;;;;4986406;28;20034;-64
2023/07/22 12:32:42;;;;;;;2.78;1.92;;;26.30;60.00;;;;;;4957816;28;20508;-63
2023/07/22 12:35:08;;;;;;;3.22;2.03;;;26.00;59.80;;;;;;4990035;28;20448;-63
2023/07/22 12:37:34;;;;;;;3.35;1.70;;;25.80;59.00;;;;;;4984425;28;20030;-63
2023/07/22 12:40:00;;;;;;;4.82;2.40;;;26.00;58.50;;;;;;4988692;28;20530;-60
2023/07/22 12:42:25;;;;;;;4.78;2.10;;;26.00;59.30;;;;;;4988794;28;20113;-63